createdAt,value
2018-09-18T00:01:30.723Z,1.23
2018-09-18T00:03:58.535Z,0.60
2018-09-18T00:06:26.227Z,0.70
2018-09-18T00:08:53.900Z,1.30
2018-09-18T00:11:21.657Z,0.43
2018-09-18T00:13:49.335Z,0.50
2018-09-18T00:16:17.039Z,0.20
2018-09-18T00:18:45.096Z,0.33
2018-09-18T00:21:13.028Z,0.50
2018-09-18T00:23:40.705Z,0.57
2018-09-18T00:26:08.427Z,0.50
2018-09-18T00:28:36.096Z,0.50
2018-09-18T00:31:04.006Z,0.50
2018-09-18T00:33:31.688Z,0.70
2018-09-18T00:35:59.379Z,0.50
2018-09-18T00:38:27.079Z,0.50
2018-09-18T00:40:54.770Z,0.60
2018-09-18T00:43:22.509Z,0.83
2018-09-18T00:45:50.268Z,0.50
2018-09-18T00:48:17.937Z,0.57
2018-09-18T00:50:45.703Z,0.50
2018-09-18T00:53:13.376Z,1.53
2018-09-18T00:55:41.071Z,0.67
2018-09-18T00:58:08.792Z,0.50
2018-09-18T01:00:36.491Z,0.43
2018-09-18T01:03:04.183Z,0.47
2018-09-18T01:05:31.959Z,0.40
2018-09-18T01:07:59.623Z,0.70
2018-09-18T01:10:27.468Z,0.30
2018-09-18T01:12:55.187Z,0.50
2018-09-18T01:15:22.953Z,0.40
2018-09-18T01:17:50.700Z,0.50
2018-09-18T01:20:18.375Z,0.47
2018-09-18T01:22:46.072Z,0.30
2018-09-18T01:25:13.776Z,0.57
2018-09-18T01:27:41.495Z,0.57
2018-09-18T01:30:09.289Z,0.30
2018-09-18T01:32:36.953Z,0.30
2018-09-18T01:35:04.685Z,0.37
2018-09-18T01:37:32.387Z,0.40
2018-09-18T01:40:00.096Z,0.30
2018-09-18T01:42:27.789Z,0.50
2018-09-18T01:44:55.489Z,0.73
2018-09-18T01:47:23.199Z,0.40
2018-09-18T01:49:50.905Z,0.53
2018-09-18T01:52:18.636Z,0.27
2018-09-18T01:54:46.329Z,0.60
2018-09-18T01:57:14.119Z,0.33
2018-09-18T01:59:41.892Z,0.40
2018-09-18T02:02:09.575Z,0.40
2018-09-18T02:04:37.336Z,0.83
2018-09-18T02:07:05.054Z,0.30
2018-09-18T02:09:32.740Z,0.50
2018-09-18T02:12:00.446Z,0.63
2018-09-18T02:14:28.168Z,0.40
2018-09-18T02:16:55.876Z,0.60
2018-09-18T02:19:23.563Z,0.60
2018-09-18T02:21:51.295Z,0.50
2018-09-18T02:24:18.987Z,0.70
2018-09-18T02:26:46.680Z,0.50
2018-09-18T02:29:14.416Z,0.50
2018-09-18T02:31:42.142Z,0.83
2018-09-18T02:34:09.851Z,0.67
2018-09-18T02:36:37.531Z,0.63
2018-09-18T02:39:08.528Z,0.40
2018-09-18T02:41:36.323Z,0.60
2018-09-18T02:44:04.022Z,0.50
2018-09-18T02:46:31.800Z,1.90
2018-09-18T02:48:59.460Z,0.53
2018-09-18T02:51:27.172Z,0.50
2018-09-18T02:53:54.855Z,0.50
2018-09-18T02:56:22.519Z,0.63
2018-09-18T02:58:50.241Z,0.50
2018-09-18T03:01:17.922Z,0.57
2018-09-18T03:03:45.880Z,0.70
2018-09-18T03:06:13.583Z,0.50
2018-09-18T03:08:41.268Z,1.07
2018-09-18T03:11:09.028Z,1.00
2018-09-18T03:13:36.724Z,0.53
2018-09-18T03:16:04.460Z,0.77
2018-09-18T03:18:32.148Z,0.80
2018-09-18T03:20:59.921Z,0.50
2018-09-18T03:23:27.627Z,0.60
2018-09-18T03:25:55.348Z,0.50
2018-09-18T03:28:23.074Z,0.33
2018-09-18T03:30:50.862Z,0.60
2018-09-18T03:33:18.584Z,0.57
2018-09-18T03:35:46.325Z,0.50
2018-09-18T03:38:14.036Z,0.73
2018-09-18T03:40:41.709Z,0.50
2018-09-18T03:43:09.471Z,0.50
2018-09-18T03:45:37.205Z,0.53
2018-09-18T03:48:04.911Z,0.40
2018-09-18T03:50:32.623Z,0.50
2018-09-18T03:53:00.392Z,0.50
2018-09-18T03:55:28.066Z,0.63
2018-09-18T03:57:55.769Z,0.50
2018-09-18T04:00:23.504Z,1.60
2018-09-18T04:02:51.457Z,0.40
2018-09-18T04:05:19.168Z,0.70
2018-09-18T04:07:46.888Z,0.53
2018-09-18T04:10:14.782Z,0.80
2018-09-18T04:12:42.834Z,0.90
2018-09-18T04:15:10.542Z,0.40
2018-09-18T04:17:38.380Z,0.60
2018-09-18T04:20:06.260Z,0.40
2018-09-18T04:22:33.968Z,0.63
2018-09-18T04:25:01.672Z,0.50
2018-09-18T04:27:29.404Z,0.30
2018-09-18T04:29:57.099Z,0.50
2018-09-18T04:32:24.790Z,0.60
2018-09-18T04:34:52.543Z,0.60
2018-09-18T04:37:20.224Z,1.13
2018-09-18T04:39:47.987Z,0.50
2018-09-18T04:42:15.701Z,0.30
2018-09-18T04:44:43.375Z,0.60
2018-09-18T04:47:11.107Z,0.50
2018-09-18T04:49:38.777Z,0.53
2018-09-18T04:52:06.485Z,0.50
2018-09-18T04:54:34.152Z,0.60
2018-09-18T04:57:01.922Z,1.17
2018-09-18T04:59:29.624Z,0.80
2018-09-18T05:01:57.441Z,2.07
2018-09-18T05:04:25.219Z,0.67
2018-09-18T05:06:52.940Z,0.47
2018-09-18T05:09:20.691Z,0.60
2018-09-18T05:11:48.373Z,0.90
2018-09-18T05:14:16.087Z,0.60
2018-09-18T05:16:43.785Z,0.50
2018-09-18T05:19:11.494Z,0.50
2018-09-18T05:21:39.180Z,0.50
2018-09-18T05:24:06.899Z,0.60
2018-09-18T05:26:34.604Z,0.30
2018-09-18T05:29:02.324Z,0.50
2018-09-18T05:31:30.060Z,0.40
2018-09-18T05:33:57.731Z,0.37
2018-09-18T05:36:25.432Z,0.70
2018-09-18T05:38:53.123Z,0.40
2018-09-18T05:41:20.835Z,0.60
2018-09-18T05:43:48.517Z,1.30
2018-09-18T05:46:16.304Z,0.50
2018-09-18T05:48:44.011Z,0.30
2018-09-18T05:51:11.683Z,0.60
2018-09-18T05:53:39.360Z,0.60
2018-09-18T05:56:07.120Z,0.57
2018-09-18T05:58:34.812Z,0.30
2018-09-18T06:01:02.564Z,0.50
2018-09-18T06:03:30.236Z,0.40
2018-09-18T06:05:57.967Z,0.30
2018-09-18T06:08:25.663Z,0.37
2018-09-18T06:10:54.007Z,0.30
2018-09-18T06:13:21.708Z,0.30
2018-09-18T06:15:49.409Z,0.33
2018-09-18T06:18:17.076Z,0.40
2018-09-18T06:20:44.780Z,0.40
2018-09-18T06:23:12.490Z,0.40
2018-09-18T06:25:40.200Z,0.40
2018-09-18T06:28:07.888Z,0.40
2018-09-18T06:30:35.612Z,0.20
2018-09-18T06:33:03.385Z,0.50
2018-09-18T06:35:31.088Z,0.30
2018-09-18T06:37:58.827Z,0.50
2018-09-18T06:40:26.513Z,0.30
2018-09-18T06:42:54.206Z,0.77
2018-09-18T06:45:21.920Z,0.53
2018-09-18T06:47:49.702Z,0.40
2018-09-18T06:50:17.411Z,0.47
2018-09-18T06:52:45.100Z,0.50
2018-09-18T06:55:12.812Z,0.60
2018-09-18T06:57:40.687Z,0.50
2018-09-18T07:00:08.462Z,0.37
2018-09-18T07:02:36.231Z,0.50
2018-09-18T07:05:04.052Z,0.60
2018-09-18T07:07:31.767Z,0.57
2018-09-18T07:09:59.472Z,0.43
2018-09-18T07:12:27.210Z,0.43
2018-09-18T07:14:54.915Z,0.40
2018-09-18T07:17:22.642Z,0.30
2018-09-18T07:19:50.492Z,0.40
2018-09-18T07:22:18.223Z,0.47
2018-09-18T07:24:46.001Z,0.40
2018-09-18T07:27:13.783Z,0.40
2018-09-18T07:29:41.488Z,1.10
2018-09-18T07:32:09.200Z,0.40
2018-09-18T07:34:36.954Z,0.60
2018-09-18T07:37:04.710Z,0.40
2018-09-18T07:39:32.438Z,0.30
2018-09-18T07:42:00.258Z,0.57
2018-09-18T07:44:28.036Z,0.40
2018-09-18T07:46:55.790Z,0.47
2018-09-18T07:49:23.521Z,0.20
2018-09-18T07:51:51.528Z,0.40
2018-09-18T07:54:19.280Z,0.40
2018-09-18T07:56:47.043Z,0.47
2018-09-18T07:59:14.852Z,0.40
2018-09-18T08:01:42.608Z,0.53
2018-09-18T08:04:10.375Z,0.40
2018-09-18T08:06:38.161Z,0.40
2018-09-18T08:09:08.566Z,0.20
2018-09-18T08:11:36.425Z,0.47
2018-09-18T08:14:04.344Z,0.50
2018-09-18T08:16:32.057Z,0.27
2018-09-18T08:18:59.889Z,0.50
2018-09-18T08:21:27.586Z,0.50
2018-09-18T08:23:55.303Z,0.67
2018-09-18T08:26:23.093Z,0.50
2018-09-18T08:28:50.837Z,0.50
2018-09-18T08:31:18.586Z,0.40
2018-09-18T08:33:46.368Z,0.50
2018-09-18T08:36:14.128Z,0.43
2018-09-18T08:38:42.741Z,0.47
2018-09-18T08:41:10.460Z,0.73
2018-09-18T08:43:38.204Z,0.50
2018-09-18T08:46:05.980Z,0.57
2018-09-18T08:48:33.689Z,0.60
2018-09-18T08:51:01.824Z,1.03
2018-09-18T08:53:30.589Z,0.57
2018-09-18T08:55:58.327Z,0.50
2018-09-18T08:58:26.036Z,0.50
2018-09-18T09:00:53.800Z,0.60
2018-09-18T09:03:21.562Z,0.60
2018-09-18T09:05:49.297Z,0.70
2018-09-18T09:08:17.213Z,0.73
2018-09-18T09:10:44.888Z,0.73
2018-09-18T09:13:12.628Z,0.77
2018-09-18T09:15:40.463Z,0.80
2018-09-18T09:18:08.402Z,1.03
2018-09-18T09:20:35.998Z,1.20
2018-09-18T09:23:03.817Z,1.07
2018-09-18T09:25:31.593Z,0.73
2018-09-18T09:27:59.291Z,0.83
2018-09-18T09:30:26.990Z,1.13
2018-09-18T09:32:54.715Z,0.90
2018-09-18T09:35:22.360Z,1.10
2018-09-18T09:37:50.099Z,0.77
2018-09-18T09:40:17.770Z,1.30
2018-09-18T09:42:45.425Z,0.83
2018-09-18T09:45:13.411Z,1.00
2018-09-18T09:47:41.086Z,0.70
2018-09-18T09:50:08.743Z,0.90
2018-09-18T09:52:36.492Z,0.70
2018-09-18T09:55:04.305Z,0.90
2018-09-18T09:57:32.020Z,1.03
2018-09-18T09:59:59.736Z,1.00
2018-09-18T10:02:29.411Z,0.73
2018-09-18T10:04:57.550Z,0.80
2018-09-18T10:07:25.477Z,1.53
2018-09-18T10:09:53.225Z,0.80
2018-09-18T10:12:20.915Z,0.70
2018-09-18T10:14:48.620Z,1.00
2018-09-18T10:17:16.318Z,0.80
2018-09-18T10:19:43.979Z,0.70
2018-09-18T10:22:11.714Z,1.13
2018-09-18T10:24:39.368Z,0.90
2018-09-18T10:27:07.043Z,0.63
2018-09-18T10:29:34.725Z,0.80
2018-09-18T10:32:02.401Z,1.00
2018-09-18T10:34:30.073Z,0.93
2018-09-18T10:36:57.840Z,0.80
2018-09-18T10:39:25.676Z,0.67
2018-09-18T10:41:53.448Z,0.80
2018-09-18T10:44:21.125Z,0.70
2018-09-18T10:46:48.819Z,0.77
2018-09-18T10:49:16.518Z,0.60
2018-09-18T10:51:44.196Z,0.57
2018-09-18T10:54:11.847Z,0.80
2018-09-18T10:56:39.529Z,0.60
2018-09-18T10:59:07.245Z,0.70
2018-09-18T11:01:34.937Z,0.80
2018-09-18T11:04:02.614Z,0.73
2018-09-18T11:06:30.277Z,0.43
2018-09-18T11:08:57.981Z,0.83
2018-09-18T11:11:25.737Z,0.60
2018-09-18T11:13:53.406Z,0.60
2018-09-18T11:16:21.102Z,0.40
2018-09-18T11:18:48.858Z,0.80
2018-09-18T11:21:16.594Z,0.60
2018-09-18T11:23:44.356Z,0.60
2018-09-18T11:26:11.977Z,0.73
2018-09-18T11:28:39.685Z,0.60
2018-09-18T11:31:07.434Z,0.77
2018-09-18T11:33:35.096Z,0.70
2018-09-18T11:36:02.811Z,0.77
2018-09-18T11:38:30.487Z,0.97
2018-09-18T11:40:58.134Z,0.97
2018-09-18T11:43:25.832Z,0.67
2018-09-18T11:45:53.625Z,0.90
2018-09-18T11:48:21.247Z,0.63
2018-09-18T11:50:48.921Z,0.80
2018-09-18T11:53:16.535Z,0.80
2018-09-18T11:55:44.209Z,1.47
2018-09-18T11:58:11.893Z,0.70
2018-09-18T12:00:39.565Z,1.20
2018-09-18T12:03:07.304Z,0.90
2018-09-18T12:05:34.973Z,0.90
2018-09-18T12:08:02.638Z,1.37
2018-09-18T12:10:30.296Z,0.63
2018-09-18T12:12:57.965Z,0.87
2018-09-18T12:15:25.638Z,0.90
2018-09-18T12:17:53.258Z,0.93
2018-09-18T12:20:20.970Z,0.80
2018-09-18T12:22:48.714Z,0.80
2018-09-18T12:25:16.331Z,0.90
2018-09-18T12:27:44.073Z,1.00
2018-09-18T12:30:11.741Z,0.80
2018-09-18T12:32:39.397Z,0.70
2018-09-18T12:35:07.167Z,0.77
2018-09-18T12:37:34.805Z,0.63
2018-09-18T12:40:02.496Z,1.13
2018-09-18T12:42:30.231Z,0.77
2018-09-18T12:44:57.857Z,0.70
2018-09-18T12:47:25.522Z,0.60
2018-09-18T12:49:53.402Z,1.00
2018-09-18T12:52:20.911Z,0.60
2018-09-18T12:54:48.545Z,1.10
2018-09-18T12:57:16.411Z,0.53
2018-09-18T12:59:44.012Z,0.60
2018-09-18T13:02:11.707Z,0.57
2018-09-18T13:04:39.325Z,1.10
2018-09-18T13:07:07.182Z,0.93
2018-09-18T13:09:34.685Z,0.80
2018-09-18T13:12:02.387Z,1.27
2018-09-18T13:14:30.078Z,0.63
2018-09-18T13:16:57.739Z,1.20
2018-09-18T13:19:25.425Z,1.00
2018-09-18T13:21:53.065Z,0.90
2018-09-18T13:24:20.748Z,0.70
2018-09-18T13:26:48.404Z,0.70
2018-09-18T13:29:16.040Z,0.87
2018-09-18T13:31:43.754Z,0.73
2018-09-18T13:34:11.373Z,0.90
2018-09-18T13:36:39.289Z,1.10
2018-09-18T13:39:07.556Z,0.80
2018-09-18T13:41:35.210Z,0.50
2018-09-18T13:44:02.903Z,0.47
2018-09-18T13:46:30.670Z,0.50
2018-09-18T13:48:58.281Z,0.67
2018-09-18T13:51:25.936Z,0.60
2018-09-18T13:53:53.615Z,0.43
2018-09-18T13:56:21.345Z,0.43
2018-09-18T13:58:49.008Z,0.50
2018-09-18T14:01:16.873Z,0.80
2018-09-18T14:03:44.489Z,0.50
2018-09-18T14:06:12.190Z,0.50
2018-09-18T14:08:39.822Z,0.60
2018-09-18T14:11:07.496Z,0.70
2018-09-18T14:13:35.164Z,0.30
2018-09-18T14:16:02.829Z,0.63
2018-09-18T14:18:30.455Z,0.60
2018-09-18T14:20:58.212Z,0.77
2018-09-18T14:23:25.909Z,0.77
2018-09-18T14:25:53.537Z,0.67
2018-09-18T14:28:21.145Z,0.73
2018-09-18T14:30:48.832Z,0.50
2018-09-18T14:33:16.516Z,0.90
2018-09-18T14:35:44.259Z,0.70
2018-09-18T14:38:11.928Z,0.90
2018-09-18T14:40:39.549Z,0.60
2018-09-18T14:43:07.290Z,0.80
2018-09-18T14:45:34.944Z,1.03
2018-09-18T14:48:02.610Z,0.80
2018-09-18T14:50:30.252Z,0.97
2018-09-18T14:52:57.928Z,0.70
2018-09-18T14:55:25.582Z,0.90
2018-09-18T14:57:53.202Z,0.63
2018-09-18T15:00:20.897Z,1.20
2018-09-18T15:02:48.562Z,0.90
2018-09-18T15:05:16.191Z,1.13
2018-09-18T15:07:43.979Z,0.90
2018-09-18T15:10:11.691Z,1.30
2018-09-18T15:12:39.377Z,1.00
2018-09-18T15:15:07.250Z,0.90
2018-09-18T15:17:34.925Z,1.17
2018-09-18T15:20:02.681Z,0.83
2018-09-18T15:22:30.353Z,1.30
2018-09-18T15:24:58.048Z,1.53
2018-09-18T15:27:25.806Z,1.00
2018-09-18T15:29:53.449Z,1.20
2018-09-18T15:32:21.123Z,0.90
2018-09-18T15:34:48.767Z,1.40
2018-09-18T15:37:16.473Z,1.33
2018-09-18T15:39:44.159Z,1.60
2018-09-18T15:42:11.785Z,1.13
2018-09-18T15:44:39.537Z,1.17
2018-09-18T15:47:07.292Z,1.27
2018-09-18T15:49:34.933Z,1.60
2018-09-18T15:52:02.600Z,1.03
2018-09-18T15:54:30.266Z,1.33
2018-09-18T15:56:57.911Z,1.47
2018-09-18T15:59:25.572Z,1.37
2018-09-18T16:01:53.273Z,1.23
2018-09-18T16:04:21.160Z,1.57
2018-09-18T16:06:48.816Z,1.50
2018-09-18T16:09:16.456Z,1.40
2018-09-18T16:11:44.090Z,1.40
2018-09-18T16:14:11.747Z,1.27
2018-09-18T16:16:39.501Z,1.40
2018-09-18T16:19:07.742Z,1.67
2018-09-18T16:21:35.465Z,1.10
2018-09-18T16:24:03.144Z,1.57
2018-09-18T16:26:30.825Z,1.00
2018-09-18T16:28:58.468Z,2.30
2018-09-18T16:31:26.180Z,1.20
2018-09-18T16:33:53.816Z,1.67
2018-09-18T16:36:21.456Z,1.30
2018-09-18T16:38:49.149Z,1.10
2018-09-18T16:41:16.841Z,1.57
2018-09-18T16:43:44.515Z,1.67
2018-09-18T16:46:12.230Z,1.47
2018-09-18T16:48:39.947Z,1.43
2018-09-18T16:51:07.744Z,1.23
2018-09-18T16:53:35.404Z,1.43
2018-09-18T16:56:03.074Z,1.10
2018-09-18T16:58:30.771Z,1.20
2018-09-18T17:00:58.567Z,1.40
2018-09-18T17:03:26.221Z,1.13
2018-09-18T17:05:53.944Z,1.53
2018-09-18T17:08:21.677Z,1.67
2018-09-18T17:10:49.570Z,1.33
2018-09-18T17:13:17.287Z,1.40
2018-09-18T17:15:44.932Z,1.90
2018-09-18T17:18:12.760Z,1.10
2018-09-18T17:20:40.545Z,1.13
2018-09-18T17:23:08.243Z,1.57
2018-09-18T17:25:35.843Z,1.30
2018-09-18T17:28:03.618Z,1.70
2018-09-18T17:30:31.327Z,1.47
2018-09-18T17:32:59.089Z,1.50
2018-09-18T17:35:26.820Z,1.40
2018-09-18T17:37:55.418Z,1.50
2018-09-18T17:40:23.094Z,1.83
2018-09-18T17:42:50.827Z,1.80
2018-09-18T17:45:18.521Z,1.57
2018-09-18T17:47:46.189Z,1.53
2018-09-18T17:50:13.952Z,1.50
2018-09-18T17:52:41.577Z,1.60
2018-09-18T17:55:09.278Z,1.60
2018-09-18T17:57:36.959Z,2.27
2018-09-18T18:00:05.187Z,3.60
2018-09-18T18:02:32.893Z,1.60
2018-09-18T18:05:00.619Z,1.20
2018-09-18T18:07:28.291Z,1.30
2018-09-18T18:09:56.019Z,1.63
2018-09-18T18:12:23.737Z,0.93
2018-09-18T18:14:51.494Z,0.90
2018-09-18T18:17:19.273Z,1.20
2018-09-18T18:19:46.989Z,1.43
2018-09-18T18:22:14.726Z,1.33
2018-09-18T18:24:42.441Z,1.10
2018-09-18T18:27:10.227Z,1.33
2018-09-18T18:29:37.947Z,1.20
2018-09-18T18:32:05.799Z,0.90
2018-09-18T18:34:33.545Z,1.40
2018-09-18T18:37:01.209Z,1.17
2018-09-18T18:39:28.939Z,1.30
2018-09-18T18:41:56.610Z,1.87
2018-09-18T18:44:24.348Z,1.83
2018-09-18T18:46:52.031Z,2.00
2018-09-18T18:49:19.669Z,1.50
2018-09-18T18:51:47.353Z,1.23
2018-09-18T18:54:15.037Z,1.47
2018-09-18T18:56:42.778Z,0.90
2018-09-18T18:59:10.469Z,1.07
2018-09-18T19:01:38.094Z,1.40
2018-09-18T19:04:05.845Z,1.20
2018-09-18T19:06:33.726Z,1.40
2018-09-18T19:09:01.462Z,1.60
2018-09-18T19:11:29.231Z,1.20
2018-09-18T19:13:57.020Z,1.43
2018-09-18T19:16:24.676Z,1.47
2018-09-18T19:18:52.465Z,1.17
2018-09-18T19:21:20.113Z,2.10
2018-09-18T19:23:47.819Z,1.60
2018-09-18T19:26:15.520Z,1.70
2018-09-18T19:28:43.234Z,1.47
2018-09-18T19:31:10.969Z,1.80
2018-09-18T19:33:38.663Z,2.37
2018-09-18T19:36:06.464Z,2.37
2018-09-18T19:38:34.126Z,1.80
2018-09-18T19:41:01.800Z,1.50
2018-09-18T19:43:29.509Z,2.10
2018-09-18T19:45:57.208Z,1.57
2018-09-18T19:48:25.151Z,1.20
2018-09-18T19:50:52.985Z,1.13
2018-09-18T19:53:20.762Z,1.60
2018-09-18T19:55:48.436Z,1.63
2018-09-18T19:58:16.140Z,1.30
2018-09-18T20:00:43.835Z,1.70
2018-09-18T20:03:11.635Z,1.13
2018-09-18T20:05:39.310Z,1.90
2018-09-18T20:08:06.969Z,2.20
2018-09-18T20:10:34.646Z,1.80
2018-09-18T20:13:02.347Z,1.73
2018-09-18T20:15:30.117Z,1.87
2018-09-18T20:17:57.872Z,2.37
2018-09-18T20:20:25.549Z,2.00
2018-09-18T20:22:53.261Z,2.07
2018-09-18T20:25:20.917Z,2.33
2018-09-18T20:27:48.649Z,1.40
2018-09-18T20:30:16.358Z,1.20
2018-09-18T20:32:44.054Z,1.70
2018-09-18T20:35:11.726Z,1.37
2018-09-18T20:37:39.451Z,1.50
2018-09-18T20:40:07.157Z,1.40
2018-09-18T20:42:34.910Z,1.20
2018-09-18T20:45:02.605Z,1.07
2018-09-18T20:47:30.266Z,0.90
2018-09-18T20:49:57.946Z,1.90
2018-09-18T20:52:25.639Z,2.73
2018-09-18T20:54:53.310Z,2.40
2018-09-18T20:57:20.978Z,3.07
2018-09-18T20:59:48.748Z,1.50
2018-09-18T21:02:16.633Z,1.17
2018-09-18T21:04:44.245Z,1.20
2018-09-18T21:07:12.029Z,1.63
2018-09-18T21:09:39.757Z,1.10
2018-09-18T21:12:07.453Z,1.20
2018-09-18T21:14:35.203Z,1.93
2018-09-18T21:17:03.008Z,4.03
2018-09-18T21:19:30.732Z,3.57
2018-09-18T21:21:58.449Z,2.27
2018-09-18T21:24:26.237Z,1.30
2018-09-18T21:26:53.967Z,1.47
2018-09-18T21:29:21.708Z,1.13
2018-09-18T21:31:49.389Z,1.23
2018-09-18T21:34:17.126Z,3.07
2018-09-18T21:36:44.833Z,1.27
2018-09-18T21:39:12.544Z,2.43
2018-09-18T21:41:40.292Z,1.67
2018-09-18T21:44:08.024Z,1.87
2018-09-18T21:46:35.753Z,1.47
2018-09-18T21:49:03.517Z,1.50
2018-09-18T21:51:31.389Z,1.00
2018-09-18T21:53:59.100Z,1.00
2018-09-18T21:56:26.836Z,0.87
2018-09-18T21:58:54.555Z,1.03
2018-09-18T22:01:22.324Z,1.20
2018-09-18T22:03:50.090Z,1.50
2018-09-18T22:06:17.826Z,1.50
2018-09-18T22:08:45.525Z,1.77
2018-09-18T22:11:13.246Z,1.83
2018-09-18T22:13:40.989Z,2.13
2018-09-18T22:16:08.693Z,2.00
2018-09-18T22:18:36.413Z,2.70
2018-09-18T22:21:04.158Z,1.57
2018-09-18T22:23:31.885Z,2.17
2018-09-18T22:25:59.652Z,2.03
2018-09-18T22:28:27.368Z,2.53
2018-09-18T22:30:55.108Z,2.10
2018-09-18T22:33:22.828Z,1.50
2018-09-18T22:35:50.508Z,1.40
2018-09-18T22:38:18.263Z,1.97
2018-09-18T22:40:45.988Z,2.50
2018-09-18T22:43:13.802Z,9.40
2018-09-18T22:45:41.484Z,5.83
2018-09-18T22:48:09.178Z,4.13
2018-09-18T22:50:37.048Z,5.00
2018-09-18T22:53:04.927Z,5.03
2018-09-18T22:55:32.636Z,4.77
2018-09-18T22:58:00.443Z,5.30
2018-09-18T23:00:28.192Z,7.67
2018-09-18T23:02:55.916Z,5.97
2018-09-18T23:05:23.662Z,7.63
2018-09-18T23:07:51.382Z,6.27
2018-09-18T23:10:19.186Z,8.27
2018-09-18T23:12:46.949Z,9.37
2018-09-18T23:15:14.660Z,6.27
2018-09-18T23:17:42.387Z,4.83
2018-09-18T23:20:10.171Z,3.97
2018-09-18T23:22:37.917Z,5.17
2018-09-18T23:25:05.715Z,3.70
2018-09-18T23:27:33.479Z,4.03
2018-09-18T23:30:01.496Z,3.87
2018-09-18T23:32:29.215Z,3.53
2018-09-18T23:34:56.931Z,3.27
2018-09-18T23:37:24.704Z,3.70
2018-09-18T23:39:52.451Z,3.40
2018-09-18T23:42:20.254Z,2.93
2018-09-18T23:44:47.891Z,2.90
2018-09-18T23:47:15.659Z,5.03
2018-09-18T23:49:43.388Z,4.00
2018-09-18T23:52:11.178Z,4.50
2018-09-18T23:54:38.861Z,6.40
2018-09-18T23:57:06.608Z,7.27
2018-09-18T23:59:34.332Z,4.80
